createdAt,value
2018-07-08T00:00:13.206Z,93.77
2018-07-08T00:01:13.258Z,93.10
2018-07-08T00:02:13.276Z,93.29
2018-07-08T00:03:13.339Z,93.29
2018-07-08T00:04:13.369Z,93.38
2018-07-08T00:05:13.423Z,93.48
2018-07-08T00:06:13.495Z,93.68
2018-07-08T00:07:13.508Z,93.68
2018-07-08T00:08:13.565Z,92.91
2018-07-08T00:09:13.613Z,93.68
2018-07-08T00:10:13.698Z,93.87
2018-07-08T00:11:13.706Z,93.96
2018-07-08T00:12:13.741Z,93.96
2018-07-08T00:13:13.790Z,93.77
2018-07-08T00:14:13.818Z,93.68
2018-07-08T00:15:13.930Z,93.10
2018-07-08T00:16:13.934Z,93.87
2018-07-08T00:17:14.011Z,93.10
2018-07-08T00:18:13.998Z,93.29
2018-07-08T00:19:14.056Z,93.58
2018-07-08T00:20:14.121Z,93.48
2018-07-08T00:21:14.158Z,92.81
2018-07-08T00:22:14.205Z,93.68
2018-07-08T00:23:14.238Z,93.87
2018-07-08T00:24:14.284Z,93.68
2018-07-08T00:25:14.335Z,93.77
2018-07-08T00:26:14.373Z,93.77
2018-07-08T00:27:14.415Z,93.96
2018-07-08T00:28:14.482Z,93.68
2018-07-08T00:29:14.522Z,94.15
2018-07-08T00:30:14.547Z,94.15
2018-07-08T00:31:14.587Z,94.45
2018-07-08T00:32:14.644Z,94.35
2018-07-08T00:33:14.721Z,94.54
2018-07-08T00:34:14.734Z,94.64
2018-07-08T00:35:14.789Z,94.64
2018-07-08T00:36:14.824Z,94.64
2018-07-08T00:37:14.860Z,94.64
2018-07-08T00:38:14.909Z,94.64
2018-07-08T00:39:14.976Z,94.83
2018-07-08T00:40:15.002Z,94.54
2018-07-08T00:41:15.042Z,95.02
2018-07-08T00:42:15.081Z,95.02
2018-07-08T00:43:15.132Z,94.54
2018-07-08T00:44:15.200Z,95.31
2018-07-08T00:45:15.222Z,95.12
2018-07-08T00:46:15.290Z,94.73
2018-07-08T00:47:15.319Z,94.73
2018-07-08T00:48:15.368Z,94.83
2018-07-08T00:49:15.390Z,95.21
2018-07-08T00:50:15.450Z,94.83
2018-07-08T00:51:15.468Z,95.02
2018-07-08T00:52:15.554Z,95.40
2018-07-08T00:53:15.569Z,96.08
2018-07-08T00:54:15.626Z,96.56
2018-07-08T00:55:15.662Z,96.85
2018-07-08T00:56:15.734Z,97.38
2018-07-08T00:57:15.781Z,97.38
2018-07-08T00:58:15.816Z,97.38
2018-07-08T00:59:15.869Z,97.38
2018-07-08T01:00:15.894Z,98.24
2018-07-08T01:01:15.933Z,98.05
2018-07-08T01:02:15.999Z,97.96
2018-07-08T01:03:16.019Z,99.01
2018-07-08T01:04:16.090Z,98.91
2018-07-08T01:05:16.120Z,99.11
2018-07-08T01:06:16.170Z,99.01
2018-07-08T01:07:16.211Z,98.82
2018-07-08T01:08:16.263Z,99.11
2018-07-08T01:09:16.288Z,98.96
2018-07-08T01:10:16.345Z,98.96
2018-07-08T01:11:16.385Z,99.35
2018-07-08T01:12:16.631Z,99.63
2018-07-08T01:13:16.487Z,99.35
2018-07-08T01:14:16.545Z,99.54
2018-07-08T01:15:16.605Z,99.35
2018-07-08T01:16:16.610Z,99.25
2018-07-08T01:17:16.640Z,99.54
2018-07-08T01:18:16.711Z,99.35
2018-07-08T01:19:16.770Z,99.15
2018-07-08T01:20:16.797Z,99.63
2018-07-08T01:21:16.839Z,99.73
2018-07-08T01:22:16.886Z,99.73
2018-07-08T01:23:16.909Z,99.99
2018-07-08T01:24:16.977Z,99.99
2018-07-08T01:25:17.036Z,99.99
2018-07-08T01:26:17.062Z,99.99
2018-07-08T01:27:17.142Z,99.92
2018-07-08T01:28:17.164Z,99.92
2018-07-08T01:29:17.239Z,99.99
2018-07-08T01:30:17.257Z,99.99
2018-07-08T01:31:17.291Z,99.99
2018-07-08T01:32:17.334Z,99.99
2018-07-08T01:33:17.358Z,99.99
2018-07-08T01:34:17.415Z,99.99
2018-07-08T01:35:17.458Z,99.99
2018-07-08T01:36:17.504Z,99.99
2018-07-08T01:37:17.574Z,99.99
2018-07-08T01:38:17.569Z,99.99
2018-07-08T01:39:17.634Z,99.99
2018-07-08T01:40:17.670Z,99.99
2018-07-08T01:41:17.751Z,99.99
2018-07-08T01:42:17.767Z,99.99
2018-07-08T01:43:18.076Z,99.99
2018-07-08T01:44:17.885Z,99.99
2018-07-08T01:45:17.926Z,99.99
2018-07-08T01:46:17.956Z,99.99
2018-07-08T01:47:17.998Z,99.99
2018-07-08T01:48:18.052Z,99.99
2018-07-08T01:49:18.078Z,99.99
2018-07-08T01:50:18.117Z,99.99
2018-07-08T01:51:18.167Z,99.99
2018-07-08T01:52:18.200Z,99.99
2018-07-08T01:53:18.269Z,99.99
2018-07-08T01:54:18.290Z,99.99
2018-07-08T01:55:18.354Z,99.99
2018-07-08T01:56:18.377Z,99.99
2018-07-08T01:57:18.437Z,99.99
2018-07-08T01:58:18.456Z,99.99
2018-07-08T01:59:18.540Z,99.99
2018-07-08T02:00:18.567Z,99.99
2018-07-08T02:01:18.606Z,99.99
2018-07-08T02:02:18.671Z,99.99
2018-07-08T02:03:18.694Z,99.99
2018-07-08T02:04:18.754Z,99.99
2018-07-08T02:05:18.772Z,99.99
2018-07-08T02:06:19.018Z,99.99
2018-07-08T02:07:18.861Z,99.99
2018-07-08T02:08:18.924Z,99.99
2018-07-08T02:09:18.976Z,99.99
2018-07-08T02:10:19.026Z,99.99
2018-07-08T02:11:19.060Z,99.99
2018-07-08T02:12:19.357Z,99.99
2018-07-08T02:13:19.183Z,99.99
2018-07-08T02:14:19.176Z,99.99
2018-07-08T02:15:19.231Z,99.99
2018-07-08T02:16:19.295Z,99.99
2018-07-08T02:17:19.517Z,99.99
2018-07-08T02:18:19.351Z,99.99
2018-07-08T02:19:19.413Z,99.99
2018-07-08T02:20:19.440Z,99.99
2018-07-08T02:21:19.520Z,99.99
2018-07-08T02:22:19.530Z,99.99
2018-07-08T02:23:19.863Z,99.99
2018-07-08T02:24:19.643Z,99.99
2018-07-08T02:25:19.676Z,99.99
2018-07-08T02:26:19.722Z,99.99
2018-07-08T02:27:19.765Z,99.99
2018-07-08T02:28:19.799Z,99.99
2018-07-08T02:29:20.052Z,99.99
2018-07-08T02:30:19.895Z,99.99
2018-07-08T02:31:19.928Z,99.99
2018-07-08T02:32:19.999Z,99.99
2018-07-08T02:33:20.041Z,99.99
2018-07-08T02:34:20.076Z,99.99
2018-07-08T02:35:20.322Z,99.99
2018-07-08T02:36:20.145Z,99.99
2018-07-08T02:37:20.195Z,99.99
2018-07-08T02:38:20.253Z,99.99
2018-07-08T02:39:20.292Z,99.99
2018-07-08T02:40:20.323Z,99.99
2018-07-08T02:41:20.369Z,99.99
2018-07-08T02:42:20.436Z,99.99
2018-07-08T02:43:20.466Z,99.99
2018-07-08T02:44:20.512Z,99.99
2018-07-08T02:45:20.555Z,99.99
2018-07-08T02:46:20.605Z,99.99
2018-07-08T02:47:20.624Z,99.99
2018-07-08T02:48:20.690Z,99.99
2018-07-08T02:49:20.750Z,99.99
2018-07-08T02:50:20.794Z,99.99
2018-07-08T02:51:20.814Z,99.99
2018-07-08T02:52:20.855Z,99.99
2018-07-08T02:53:20.914Z,99.99
2018-07-08T02:54:20.957Z,99.99
2018-07-08T02:55:21.006Z,99.99
2018-07-08T02:56:21.019Z,99.99
2018-07-08T02:57:21.081Z,99.99
2018-07-08T02:58:21.100Z,99.99
2018-07-08T02:59:21.175Z,99.99
2018-07-08T03:00:21.203Z,99.99
2018-07-08T03:01:21.287Z,99.99
2018-07-08T03:02:21.316Z,99.99
2018-07-08T03:03:21.374Z,99.99
2018-07-08T03:04:21.388Z,99.99
2018-07-08T03:05:21.459Z,99.99
2018-07-08T03:06:21.495Z,99.99
2018-07-08T03:07:21.531Z,99.99
2018-07-08T03:08:21.803Z,99.99
2018-07-08T03:09:21.590Z,99.99
2018-07-08T03:10:21.666Z,99.99
2018-07-08T03:11:21.692Z,99.99
2018-07-08T03:12:21.768Z,99.99
2018-07-08T03:13:21.790Z,99.99
2018-07-08T03:14:21.833Z,99.99
2018-07-08T03:15:21.870Z,99.99
2018-07-08T03:16:21.965Z,99.99
2018-07-08T03:17:21.959Z,99.99
2018-07-08T03:18:22.051Z,99.99
2018-07-08T03:19:22.055Z,99.99
2018-07-08T03:20:22.085Z,99.99
2018-07-08T03:21:22.157Z,99.99
2018-07-08T03:22:22.195Z,99.99
2018-07-08T03:23:22.228Z,99.99
2018-07-08T03:24:22.288Z,99.99
2018-07-08T03:25:22.294Z,99.99
2018-07-08T03:26:22.359Z,99.99
2018-07-08T03:27:22.394Z,99.99
2018-07-08T03:28:22.437Z,99.99
2018-07-08T03:29:22.506Z,99.99
2018-07-08T03:30:22.534Z,99.99
2018-07-08T03:31:22.630Z,99.99
2018-07-08T03:32:22.637Z,99.99
2018-07-08T03:33:22.684Z,99.99
2018-07-08T03:34:22.716Z,99.99
2018-07-08T03:35:22.773Z,99.99
2018-07-08T03:36:22.841Z,99.99
2018-07-08T03:37:22.876Z,99.99
2018-07-08T03:38:22.891Z,99.99
2018-07-08T03:39:22.966Z,99.99
2018-07-08T03:40:22.972Z,99.99
2018-07-08T03:41:22.999Z,99.99
2018-07-08T03:42:23.051Z,99.99
2018-07-08T03:43:23.126Z,99.99
2018-07-08T03:44:23.201Z,99.99
2018-07-08T03:45:23.203Z,99.99
2018-07-08T03:46:23.243Z,99.99
2018-07-08T03:47:23.291Z,99.99
2018-07-08T03:48:23.323Z,99.99
2018-07-08T03:49:23.378Z,99.99
2018-07-08T03:50:23.394Z,99.99
2018-07-08T03:51:23.443Z,99.99
2018-07-08T03:52:23.549Z,99.99
2018-07-08T03:53:23.545Z,99.99
2018-07-08T03:54:23.569Z,99.99
2018-07-08T03:55:23.681Z,99.99
2018-07-08T03:56:23.672Z,99.99
2018-07-08T03:57:23.720Z,99.99
2018-07-08T03:58:23.767Z,99.99
2018-07-08T03:59:23.803Z,99.99
2018-07-08T04:00:23.855Z,99.99
2018-07-08T04:01:23.895Z,99.99
2018-07-08T04:02:23.943Z,99.99
2018-07-08T04:03:23.976Z,99.99
2018-07-08T04:04:24.032Z,99.99
2018-07-08T04:05:24.128Z,99.99
2018-07-08T04:06:24.105Z,99.99
2018-07-08T04:07:24.171Z,99.99
2018-07-08T04:08:24.380Z,99.99
2018-07-08T04:09:24.245Z,99.99
2018-07-08T04:10:24.292Z,99.99
2018-07-08T04:11:24.315Z,99.99
2018-07-08T04:12:24.361Z,99.99
2018-07-08T04:13:24.421Z,99.99
2018-07-08T04:14:24.478Z,99.99
2018-07-08T04:15:24.514Z,99.99
2018-07-08T04:16:24.569Z,99.99
2018-07-08T04:17:24.593Z,99.99
2018-07-08T04:18:24.654Z,99.99
2018-07-08T04:19:24.926Z,99.99
2018-07-08T04:20:24.726Z,99.99
2018-07-08T04:21:24.766Z,99.99
2018-07-08T04:22:24.835Z,99.99
2018-07-08T04:23:24.897Z,99.99
2018-07-08T04:24:24.922Z,99.99
2018-07-08T04:25:24.931Z,99.99
2018-07-08T04:26:24.991Z,99.99
2018-07-08T04:27:25.022Z,99.99
2018-07-08T04:28:25.098Z,99.99
2018-07-08T04:29:25.119Z,99.99
2018-07-08T04:30:25.400Z,99.99
2018-07-08T04:31:25.186Z,99.99
2018-07-08T04:32:25.236Z,99.99
2018-07-08T04:33:25.281Z,99.99
2018-07-08T04:34:25.372Z,99.99
2018-07-08T04:35:25.394Z,99.99
2018-07-08T04:36:25.428Z,99.99
2018-07-08T04:37:25.456Z,99.99
2018-07-08T04:38:25.520Z,99.99
2018-07-08T04:39:25.561Z,99.99
2018-07-08T04:40:25.613Z,99.99
2018-07-08T04:41:25.629Z,99.99
2018-07-08T04:42:25.873Z,99.99
2018-07-08T04:43:25.730Z,99.99
2018-07-08T04:44:25.771Z,99.99
2018-07-08T04:45:25.825Z,99.99
2018-07-08T04:46:25.868Z,99.99
2018-07-08T04:47:25.900Z,99.99
2018-07-08T04:48:25.941Z,99.99
2018-07-08T04:49:25.977Z,99.99
2018-07-08T04:50:26.032Z,99.99
2018-07-08T04:51:26.067Z,99.99
2018-07-08T04:52:26.125Z,99.99
2018-07-08T04:53:26.170Z,99.99
2018-07-08T04:54:26.448Z,99.99
2018-07-08T04:55:26.246Z,99.99
2018-07-08T04:56:26.293Z,99.99
2018-07-08T04:57:26.318Z,99.99
2018-07-08T04:58:26.372Z,99.99
2018-07-08T04:59:26.416Z,99.99
2018-07-08T05:00:26.450Z,99.99
2018-07-08T05:01:26.547Z,99.99
2018-07-08T05:02:26.571Z,99.99
2018-07-08T05:03:26.599Z,99.99
2018-07-08T05:04:26.652Z,99.99
2018-07-08T05:05:26.676Z,99.99
2018-07-08T05:06:26.785Z,99.99
2018-07-08T05:07:26.781Z,99.99
2018-07-08T05:08:26.809Z,99.99
2018-07-08T05:09:26.889Z,99.99
2018-07-08T05:10:26.882Z,99.99
2018-07-08T05:11:26.941Z,99.99
2018-07-08T05:12:26.978Z,99.99
2018-07-08T05:13:27.043Z,99.99
2018-07-08T05:14:27.064Z,99.99
2018-07-08T05:15:27.107Z,99.99
2018-07-08T05:16:27.135Z,99.99
2018-07-08T05:17:27.215Z,99.99
2018-07-08T05:18:27.236Z,99.99
2018-07-08T05:19:27.288Z,99.99
2018-07-08T05:20:27.374Z,99.99
2018-07-08T05:21:27.385Z,99.99
2018-07-08T05:22:27.413Z,99.99
2018-07-08T05:23:27.441Z,99.99
2018-07-08T05:24:27.556Z,99.99
2018-07-08T05:25:27.517Z,99.99
2018-07-08T05:26:27.830Z,99.99
2018-07-08T05:27:27.632Z,99.99
2018-07-08T05:28:27.668Z,99.99
2018-07-08T05:29:27.707Z,99.99
2018-07-08T05:30:27.781Z,99.99
2018-07-08T05:31:27.845Z,99.99
2018-07-08T05:32:27.855Z,99.99
2018-07-08T05:33:27.938Z,99.99
2018-07-08T05:34:27.927Z,99.99
2018-07-08T05:35:27.961Z,99.99
2018-07-08T05:36:27.995Z,99.99
2018-07-08T05:37:28.055Z,99.99
2018-07-08T05:38:28.114Z,99.99
2018-07-08T05:39:28.151Z,99.99
2018-07-08T05:40:28.169Z,99.99
2018-07-08T05:41:28.252Z,99.99
2018-07-08T05:42:28.484Z,99.99
2018-07-08T05:43:28.322Z,99.99
2018-07-08T05:44:28.374Z,99.99
2018-07-08T05:45:28.412Z,99.99
2018-07-08T05:46:28.461Z,99.99
2018-07-08T05:47:28.469Z,99.99
2018-07-08T05:48:28.528Z,99.99
2018-07-08T05:49:28.576Z,99.99
2018-07-08T05:50:28.640Z,99.99
2018-07-08T05:51:28.668Z,99.99
2018-07-08T05:52:28.684Z,99.99
2018-07-08T05:53:28.950Z,99.99
2018-07-08T05:54:28.797Z,99.99
2018-07-08T05:55:28.829Z,99.99
2018-07-08T05:56:28.903Z,99.99
2018-07-08T05:57:28.932Z,99.99
2018-07-08T05:58:28.967Z,99.99
2018-07-08T05:59:29.018Z,99.99
2018-07-08T06:00:29.059Z,99.99
2018-07-08T06:01:29.077Z,99.99
2018-07-08T06:02:29.154Z,99.99
2018-07-08T06:03:29.186Z,99.99
2018-07-08T06:04:29.460Z,99.99
2018-07-08T06:05:29.236Z,99.99
2018-07-08T06:06:29.301Z,99.99
2018-07-08T06:07:29.357Z,99.99
2018-07-08T06:08:29.394Z,99.99
2018-07-08T06:09:29.436Z,99.99
2018-07-08T06:10:29.526Z,99.99
2018-07-08T06:11:29.533Z,99.99
2018-07-08T06:12:29.577Z,99.99
2018-07-08T06:13:29.594Z,99.99
2018-07-08T06:14:29.641Z,99.99
2018-07-08T06:15:29.719Z,99.99
2018-07-08T06:16:29.785Z,99.99
2018-07-08T06:17:29.821Z,99.99
2018-07-08T06:18:29.841Z,99.99
2018-07-08T06:19:30.077Z,99.99
2018-07-08T06:20:29.909Z,99.99
2018-07-08T06:21:29.986Z,99.99
2018-07-08T06:22:29.988Z,99.99
2018-07-08T06:23:30.047Z,99.99
2018-07-08T06:24:30.078Z,99.99
2018-07-08T06:25:30.170Z,99.99
2018-07-08T06:26:30.182Z,99.99
2018-07-08T06:27:30.201Z,99.99
2018-07-08T06:28:30.267Z,99.99
2018-07-08T06:29:30.281Z,99.99
2018-07-08T06:30:30.554Z,99.99
2018-07-08T06:31:30.395Z,99.99
2018-07-08T06:32:30.421Z,99.99
2018-07-08T06:33:30.474Z,99.99
2018-07-08T06:34:30.497Z,99.99
2018-07-08T06:35:30.566Z,99.99
2018-07-08T06:36:30.640Z,99.99
2018-07-08T06:37:30.632Z,99.99
2018-07-08T06:38:30.676Z,99.99
2018-07-08T06:39:30.717Z,99.99
2018-07-08T06:40:30.766Z,99.99
2018-07-08T06:41:30.998Z,99.99
2018-07-08T06:42:30.888Z,99.99
2018-07-08T06:43:30.884Z,99.99
2018-07-08T06:44:30.972Z,99.99
2018-07-08T06:45:30.993Z,99.99
2018-07-08T06:46:31.072Z,99.99
2018-07-08T06:47:31.074Z,99.99
2018-07-08T06:48:31.127Z,99.99
2018-07-08T06:49:31.159Z,99.99
2018-07-08T06:50:31.238Z,99.99
2018-07-08T06:51:31.290Z,99.99
2018-07-08T06:52:31.472Z,99.99
2018-07-08T06:53:31.298Z,99.99
2018-07-08T06:54:31.352Z,99.99
2018-07-08T06:55:31.421Z,99.99
2018-07-08T06:56:31.435Z,99.99
2018-07-08T06:57:31.478Z,99.99
2018-07-08T06:58:31.533Z,99.99
2018-07-08T06:59:31.583Z,99.99
2018-07-08T07:00:31.594Z,99.99
2018-07-08T07:01:31.646Z,99.99
2018-07-08T07:02:31.716Z,99.99
2018-07-08T07:03:31.746Z,99.99
2018-07-08T07:04:31.988Z,99.99
2018-07-08T07:05:31.839Z,99.99
2018-07-08T07:06:31.882Z,99.99
2018-07-08T07:07:31.900Z,99.99
2018-07-08T07:08:31.939Z,99.99
2018-07-08T07:09:32.050Z,99.99
2018-07-08T07:10:32.032Z,99.99
2018-07-08T07:11:32.086Z,99.99
2018-07-08T07:12:32.131Z,99.99
2018-07-08T07:13:32.161Z,99.99
2018-07-08T07:14:32.226Z,99.99
2018-07-08T07:15:32.253Z,99.99
2018-07-08T07:16:32.489Z,99.99
2018-07-08T07:17:32.437Z,99.99
2018-07-08T07:18:32.390Z,99.99
2018-07-08T07:19:32.411Z,99.99
2018-07-08T07:20:32.478Z,99.99
2018-07-08T07:21:32.510Z,99.99
2018-07-08T07:22:32.557Z,99.99
2018-07-08T07:23:32.619Z,99.99
2018-07-08T07:24:32.646Z,99.99
2018-07-08T07:25:32.662Z,99.99
2018-07-08T07:26:32.735Z,99.99
2018-07-08T07:27:32.766Z,99.99
2018-07-08T07:28:32.864Z,99.99
2018-07-08T07:29:33.080Z,99.99
2018-07-08T07:30:32.909Z,99.99
2018-07-08T07:31:32.917Z,99.99
2018-07-08T07:32:32.962Z,99.99
2018-07-08T07:33:33.017Z,99.99
2018-07-08T07:34:33.081Z,99.99
2018-07-08T07:35:33.114Z,99.99
2018-07-08T07:36:33.130Z,99.99
2018-07-08T07:37:33.215Z,99.99
2018-07-08T07:38:33.238Z,99.99
2018-07-08T07:39:33.264Z,99.99
2018-07-08T07:40:33.522Z,99.99
2018-07-08T07:41:33.363Z,99.99
2018-07-08T07:42:33.390Z,99.99
2018-07-08T07:43:33.438Z,99.99
2018-07-08T07:44:33.483Z,99.99
2018-07-08T07:45:33.561Z,99.99
2018-07-08T07:46:33.563Z,99.99
2018-07-08T07:47:33.620Z,99.99
2018-07-08T07:48:33.665Z,99.99
2018-07-08T07:49:33.699Z,99.99
2018-07-08T07:50:33.747Z,99.99
2018-07-08T07:51:34.001Z,99.99
2018-07-08T07:52:33.821Z,99.99
2018-07-08T07:53:33.876Z,99.99
2018-07-08T07:54:33.926Z,99.99
2018-07-08T07:55:33.969Z,99.99
2018-07-08T07:56:34.021Z,99.99
2018-07-08T07:57:34.018Z,99.99
2018-07-08T07:58:34.091Z,99.99
2018-07-08T07:59:34.123Z,99.99
2018-07-08T08:00:34.190Z,99.99
2018-07-08T08:01:34.216Z,99.99
2018-07-08T08:02:34.450Z,99.99
2018-07-08T08:03:34.295Z,99.99
2018-07-08T08:04:34.345Z,99.99
2018-07-08T08:05:34.382Z,99.99
2018-07-08T08:06:34.438Z,99.99
2018-07-08T08:07:34.462Z,99.99
2018-07-08T08:08:34.554Z,99.99
2018-07-08T08:09:34.563Z,99.99
2018-07-08T08:10:34.597Z,99.99
2018-07-08T08:11:34.639Z,99.99
2018-07-08T08:12:34.686Z,99.99
2018-07-08T08:13:34.722Z,99.99
2018-07-08T08:14:34.748Z,99.99
2018-07-08T08:15:34.806Z,99.99
2018-07-08T08:16:34.864Z,99.99
2018-07-08T08:17:35.094Z,99.99
2018-07-08T08:18:34.932Z,99.99
2018-07-08T08:19:34.983Z,99.99
2018-07-08T08:20:35.002Z,99.99
2018-07-08T08:21:35.061Z,99.99
2018-07-08T08:22:35.099Z,99.99
2018-07-08T08:23:35.127Z,99.99
2018-07-08T08:24:35.221Z,99.99
2018-07-08T08:25:35.237Z,99.99
2018-07-08T08:26:35.304Z,99.99
2018-07-08T08:27:35.337Z,99.99
2018-07-08T08:28:35.369Z,99.99
2018-07-08T08:29:35.405Z,99.99
2018-07-08T08:30:35.437Z,99.99
2018-07-08T08:31:35.471Z,99.99
2018-07-08T08:32:35.531Z,99.99
2018-07-08T08:33:35.557Z,99.99
2018-07-08T08:34:35.619Z,99.99
2018-07-08T08:35:35.923Z,99.99
2018-07-08T08:36:35.717Z,99.99
2018-07-08T08:37:35.770Z,99.99
2018-07-08T08:38:35.788Z,99.99
2018-07-08T08:39:35.837Z,99.99
2018-07-08T08:40:35.870Z,99.99
2018-07-08T08:41:35.963Z,99.99
2018-07-08T08:42:35.963Z,99.99
2018-07-08T08:43:36.019Z,99.99
2018-07-08T08:44:36.036Z,99.99
2018-07-08T08:45:36.099Z,99.99
2018-07-08T08:46:36.126Z,99.99
2018-07-08T08:47:36.370Z,99.99
2018-07-08T08:48:36.266Z,99.99
2018-07-08T08:49:36.260Z,99.99
2018-07-08T08:50:36.348Z,99.99
2018-07-08T08:51:36.348Z,99.99
2018-07-08T08:52:36.493Z,99.99
2018-07-08T08:53:36.426Z,99.99
2018-07-08T08:54:36.520Z,99.99
2018-07-08T08:55:36.502Z,99.99
2018-07-08T08:56:36.560Z,99.99
2018-07-08T08:57:36.577Z,99.99
2018-07-08T08:58:36.635Z,99.99
2018-07-08T08:59:36.878Z,99.99
2018-07-08T09:00:36.701Z,99.99
2018-07-08T09:01:36.757Z,99.99
2018-07-08T09:02:36.815Z,99.99
2018-07-08T09:03:36.861Z,99.99
2018-07-08T09:04:36.872Z,99.99
2018-07-08T09:05:36.909Z,99.99
2018-07-08T09:06:36.970Z,99.99
2018-07-08T09:07:37.017Z,99.99
2018-07-08T09:08:37.065Z,99.99
2018-07-08T09:09:37.092Z,99.99
2018-07-08T09:10:37.193Z,99.99
2018-07-08T09:11:37.185Z,99.99
2018-07-08T09:12:37.274Z,99.99
2018-07-08T09:13:37.269Z,99.99
2018-07-08T09:14:37.513Z,99.99
2018-07-08T09:15:37.349Z,99.99
2018-07-08T09:16:37.387Z,99.99
2018-07-08T09:17:37.451Z,99.99
2018-07-08T09:18:37.481Z,99.99
2018-07-08T09:19:37.537Z,99.99
2018-07-08T09:20:37.560Z,99.99
2018-07-08T09:21:37.644Z,99.99
2018-07-08T09:22:37.636Z,99.99
2018-07-08T09:23:37.687Z,99.99
2018-07-08T09:24:37.739Z,99.99
2018-07-08T09:25:37.782Z,99.99
2018-07-08T09:26:38.004Z,99.99
2018-07-08T09:27:37.839Z,99.99
2018-07-08T09:28:37.907Z,99.99
2018-07-08T09:29:37.918Z,99.99
2018-07-08T09:30:37.982Z,99.99
2018-07-08T09:31:38.034Z,99.99
2018-07-08T09:32:38.061Z,99.99
2018-07-08T09:33:38.149Z,99.99
2018-07-08T09:34:38.155Z,99.99
2018-07-08T09:35:38.201Z,99.99
2018-07-08T09:36:38.235Z,99.99
2018-07-08T09:37:38.262Z,99.99
2018-07-08T09:38:38.368Z,99.99
2018-07-08T09:39:38.356Z,99.99
2018-07-08T09:40:38.392Z,99.99
2018-07-08T09:41:38.441Z,99.99
2018-07-08T09:42:38.495Z,99.99
2018-07-08T09:43:38.523Z,99.99
2018-07-08T09:44:38.590Z,99.99
2018-07-08T09:45:38.643Z,99.99
2018-07-08T09:46:38.647Z,99.99
2018-07-08T09:47:38.716Z,99.99
2018-07-08T09:48:38.916Z,99.99
2018-07-08T09:49:38.795Z,99.99
2018-07-08T09:50:38.823Z,99.99
2018-07-08T09:51:38.855Z,99.99
2018-07-08T09:52:38.957Z,99.99
2018-07-08T09:53:38.962Z,99.99
2018-07-08T09:54:39.001Z,99.99
2018-07-08T09:55:39.070Z,99.99
2018-07-08T09:56:39.087Z,99.99
2018-07-08T09:57:39.159Z,99.99
2018-07-08T09:58:39.151Z,99.99
2018-07-08T09:59:39.183Z,99.99
2018-07-08T10:00:39.461Z,99.99
2018-07-08T10:01:39.262Z,99.99
2018-07-08T10:02:39.316Z,99.99
2018-07-08T10:03:39.353Z,99.99
2018-07-08T10:04:39.598Z,99.99
2018-07-08T10:05:39.477Z,99.99
2018-07-08T10:06:39.496Z,99.99
2018-07-08T10:07:39.530Z,99.99
2018-07-08T10:08:39.632Z,99.99
2018-07-08T10:09:39.623Z,99.99
2018-07-08T10:10:39.681Z,99.99
2018-07-08T10:11:39.703Z,99.99
2018-07-08T10:12:39.941Z,99.99
2018-07-08T10:13:39.872Z,99.99
2018-07-08T10:14:39.825Z,99.99
2018-07-08T10:15:39.866Z,99.99
2018-07-08T10:16:39.928Z,99.99
2018-07-08T10:17:39.983Z,99.99
2018-07-08T10:18:39.988Z,99.99
2018-07-08T10:19:40.128Z,99.99
2018-07-08T10:20:40.077Z,99.99
2018-07-08T10:21:40.105Z,99.99
2018-07-08T10:22:40.166Z,99.99
2018-07-08T10:23:40.219Z,99.99
2018-07-08T10:24:40.461Z,99.99
2018-07-08T10:25:40.308Z,99.99
2018-07-08T10:26:40.354Z,99.99
2018-07-08T10:27:40.371Z,99.99
2018-07-08T10:28:40.416Z,99.99
2018-07-08T10:29:40.447Z,99.99
2018-07-08T10:30:40.497Z,99.99
2018-07-08T10:31:40.536Z,99.99
2018-07-08T10:32:40.598Z,99.99
2018-07-08T10:33:40.601Z,99.99
2018-07-08T10:34:40.689Z,99.99
2018-07-08T10:35:40.716Z,99.99
2018-07-08T10:36:40.824Z,99.99
2018-07-08T10:37:40.805Z,99.99
2018-07-08T10:38:40.863Z,99.99
2018-07-08T10:39:40.897Z,99.99
2018-07-08T10:40:40.925Z,99.99
2018-07-08T10:41:40.970Z,99.99
2018-07-08T10:42:41.055Z,99.99
2018-07-08T10:43:41.066Z,99.99
2018-07-08T10:44:41.112Z,99.99
2018-07-08T10:45:41.180Z,99.99
2018-07-08T10:46:41.402Z,99.99
2018-07-08T10:47:41.232Z,99.99
2018-07-08T10:48:41.273Z,99.99
2018-07-08T10:49:41.332Z,99.99
2018-07-08T10:50:41.355Z,99.99
2018-07-08T10:51:41.407Z,99.01
2018-07-08T10:52:41.482Z,97.33
2018-07-08T10:53:41.507Z,95.79
2018-07-08T10:54:41.574Z,95.07
2018-07-08T10:55:41.599Z,94.06
2018-07-08T10:56:41.689Z,93.48
2018-07-08T10:57:41.674Z,92.13
2018-07-08T10:58:41.956Z,90.82
2018-07-08T10:59:41.805Z,90.15
2018-07-08T11:00:41.817Z,89.32
2018-07-08T11:01:41.882Z,88.65
2018-07-08T11:02:41.889Z,88.07
2018-07-08T11:03:41.947Z,87.78
2018-07-08T11:04:42.010Z,87.49
2018-07-08T11:05:42.045Z,86.76
2018-07-08T11:06:42.117Z,85.80
2018-07-08T11:07:42.161Z,85.22
2018-07-08T11:08:42.211Z,84.16
2018-07-08T11:09:42.496Z,84.54
2018-07-08T11:10:42.306Z,84.64
2018-07-08T11:11:42.348Z,84.20
2018-07-08T11:12:42.394Z,84.20
2018-07-08T11:13:42.423Z,84.68
2018-07-08T11:14:42.539Z,84.97
2018-07-08T11:15:42.554Z,85.16
2018-07-08T11:16:42.632Z,84.58
2018-07-08T11:17:42.636Z,84.53
2018-07-08T11:18:42.693Z,82.69
2018-07-08T11:19:42.712Z,82.98
2018-07-08T11:20:42.839Z,80.99
2018-07-08T11:21:43.011Z,80.61
2018-07-08T11:22:42.876Z,80.80
2018-07-08T11:23:42.922Z,79.93
2018-07-08T11:24:42.984Z,80.46
2018-07-08T11:25:43.028Z,78.52
2018-07-08T11:26:43.065Z,78.71
2018-07-08T11:27:43.133Z,78.61
2018-07-08T11:28:43.187Z,78.13
2018-07-08T11:29:43.224Z,79.33
2018-07-08T11:30:43.323Z,77.92
2018-07-08T11:31:43.314Z,77.14
2018-07-08T11:32:43.639Z,76.41
2018-07-08T11:33:43.426Z,75.73
2018-07-08T11:34:43.524Z,74.60
2018-07-08T11:35:43.544Z,74.41
2018-07-08T11:36:43.598Z,73.35
2018-07-08T11:37:43.629Z,73.02
2018-07-08T11:38:43.687Z,73.50
2018-07-08T11:39:43.722Z,72.96
2018-07-08T11:40:43.786Z,73.02
2018-07-08T11:41:43.835Z,73.15
2018-07-08T11:42:43.876Z,72.71
2018-07-08T11:43:43.958Z,72.53
2018-07-08T11:44:43.961Z,72.73
2018-07-08T11:45:44.039Z,73.02
2018-07-08T11:46:44.072Z,73.50
2018-07-08T11:47:44.115Z,73.54
2018-07-08T11:48:44.241Z,71.70
2018-07-08T11:49:44.254Z,72.02
2018-07-08T11:50:44.293Z,72.41
2018-07-08T11:51:44.336Z,71.54
2018-07-08T11:52:44.405Z,71.93
2018-07-08T11:53:44.452Z,73.28
2018-07-08T11:54:44.532Z,73.19
2018-07-08T11:55:44.529Z,72.16
2018-07-08T11:56:44.602Z,70.61
2018-07-08T11:57:44.840Z,70.45
2018-07-08T11:58:44.724Z,70.51
2018-07-08T11:59:44.764Z,69.80
2018-07-08T12:00:44.800Z,69.41
2018-07-08T12:01:44.939Z,69.02
2018-07-08T12:02:44.928Z,69.18
2018-07-08T12:03:44.963Z,69.02
2018-07-08T12:04:45.044Z,69.22
2018-07-08T12:05:45.103Z,69.41
2018-07-08T12:06:45.146Z,68.25
2018-07-08T12:07:45.169Z,68.31
2018-07-08T12:08:45.229Z,69.48
2018-07-08T12:09:45.301Z,69.80
2018-07-08T12:10:45.332Z,70.12
2018-07-08T12:11:45.404Z,68.28
2018-07-08T12:12:45.488Z,68.38
2018-07-08T12:13:45.698Z,67.37
2018-07-08T12:14:45.588Z,68.05
2018-07-08T12:15:45.615Z,68.44
2018-07-08T12:16:45.646Z,68.48
2018-07-08T12:17:45.687Z,67.99
2018-07-08T12:18:45.765Z,68.96
2018-07-08T12:19:45.825Z,67.73
2018-07-08T12:20:45.871Z,67.67
2018-07-08T12:21:45.967Z,67.18
2018-07-08T12:22:45.980Z,66.83
2018-07-08T12:23:46.025Z,66.44
2018-07-08T12:24:46.099Z,65.59
2018-07-08T12:25:46.118Z,67.05
2018-07-08T12:26:46.203Z,66.93
2018-07-08T12:27:46.246Z,67.02
2018-07-08T12:28:46.299Z,66.47
2018-07-08T12:29:46.360Z,65.17
2018-07-08T12:30:46.387Z,65.66
2018-07-08T12:31:46.448Z,65.40
2018-07-08T12:32:46.570Z,65.17
2018-07-08T12:33:46.580Z,65.66
2018-07-08T12:34:46.630Z,66.44
2018-07-08T12:35:46.683Z,67.02
2018-07-08T12:36:46.769Z,66.56
2018-07-08T12:37:46.781Z,66.27
2018-07-08T12:38:46.842Z,65.40
2018-07-08T12:39:46.896Z,64.72
2018-07-08T12:40:46.957Z,64.36
2018-07-08T12:41:47.014Z,64.04
2018-07-08T12:42:47.072Z,64.17
2018-07-08T12:43:47.109Z,66.14
2018-07-08T12:44:47.193Z,65.37
2018-07-08T12:45:47.222Z,64.65
2018-07-08T12:46:47.282Z,64.59
2018-07-08T12:47:47.317Z,64.69
2018-07-08T12:48:47.406Z,63.81
2018-07-08T12:49:47.431Z,64.29
2018-07-08T12:50:47.511Z,63.65
2018-07-08T12:51:47.545Z,63.84
2018-07-08T12:52:47.617Z,63.23